createdAt,value
2023-12-11T00:00:28.633Z,99905.61
2023-12-11T00:01:36.197Z,99912.44
2023-12-11T00:02:38.836Z,99900.48
2023-12-11T00:03:41.311Z,99907.30
2023-12-11T00:04:43.645Z,99911.55
2023-12-11T00:05:46.909Z,99912.44
2023-12-11T00:06:49.675Z,99902.17
2023-12-11T00:07:52.202Z,99909.02
2023-12-11T00:08:54.587Z,99909.02
2023-12-11T00:09:58.573Z,99909.88
2023-12-11T00:11:01.720Z,99911.58
2023-12-11T00:12:04.185Z,99906.45
2023-12-11T00:13:06.562Z,99909.03
2023-12-11T00:14:09.748Z,99897.95
2023-12-11T00:15:14.384Z,99910.73
2023-12-11T00:16:18.756Z,99902.22
2023-12-11T00:17:21.903Z,99903.92
2023-12-11T00:18:24.551Z,99909.02
2023-12-11T00:19:27.497Z,99902.22
2023-12-11T00:20:32.436Z,99898.81
2023-12-11T00:21:34.821Z,99898.81
2023-12-11T00:22:37.064Z,99903.05
2023-12-11T00:23:39.715Z,99910.75
2023-12-11T00:24:42.182Z,99903.07
2023-12-11T00:25:48.541Z,99900.52
2023-12-11T00:26:51.384Z,99902.20
2023-12-11T00:27:53.712Z,99897.09
2023-12-11T00:28:56.452Z,99903.07
2023-12-11T00:29:59.976Z,99902.23
2023-12-11T00:31:02.456Z,99904.77
2023-12-11T00:32:06.054Z,99898.79
2023-12-11T00:33:09.009Z,99897.95
2023-12-11T00:34:11.616Z,99899.66
2023-12-11T00:35:15.338Z,99903.92
2023-12-11T00:36:18.158Z,99894.54
2023-12-11T00:37:20.420Z,99897.08
2023-12-11T00:38:23.702Z,99895.41
2023-12-11T00:39:26.614Z,99897.09
2023-12-11T00:40:30.721Z,99894.52
2023-12-11T00:41:33.101Z,99893.70
2023-12-11T00:42:35.420Z,99897.97
2023-12-11T00:43:45.088Z,99900.52
2023-12-11T00:44:43.127Z,99895.41
2023-12-11T00:45:45.844Z,99891.98
2023-12-11T00:46:48.299Z,99886.02
2023-12-11T00:47:50.724Z,99878.34
2023-12-11T00:48:54.556Z,99891.13
2023-12-11T00:49:57.675Z,99884.30
2023-12-11T00:51:01.198Z,99879.19
2023-12-11T00:52:04.421Z,99872.38
2023-12-11T00:53:07.835Z,99875.77
2023-12-11T00:54:10.349Z,99868.09
2023-12-11T00:55:13.227Z,99876.63
2023-12-11T00:56:16.902Z,99868.95
2023-12-11T00:57:19.343Z,99869.80
2023-12-11T00:58:21.758Z,99866.41
2023-12-11T00:59:25.191Z,99864.70
2023-12-11T01:00:28.667Z,99858.71
2023-12-11T01:01:31.235Z,99858.72
2023-12-11T01:02:33.759Z,99861.27
2023-12-11T01:03:37.483Z,99861.28
2023-12-11T01:04:40.405Z,99862.14
2023-12-11T01:05:43.852Z,99864.69
2023-12-11T01:06:47.448Z,99862.13
2023-12-11T01:07:50.592Z,99866.38
2023-12-11T01:08:53.087Z,99863.83
2023-12-11T01:09:56.196Z,99868.95
2023-12-11T01:10:59.709Z,99868.94
2023-12-11T01:12:02.583Z,99866.38
2023-12-11T01:13:05.223Z,99862.95
2023-12-11T01:14:08.312Z,99862.97
2023-12-11T01:15:10.782Z,99855.30
2023-12-11T01:16:14.004Z,99852.73
2023-12-11T01:17:37.278Z,99850.19
2023-12-11T01:18:21.180Z,99838.27
2023-12-11T01:19:24.121Z,99847.66
2023-12-11T01:20:27.129Z,99835.72
2023-12-11T01:21:29.454Z,99833.98
2023-12-11T01:22:31.850Z,99841.66
2023-12-11T01:23:34.618Z,99841.66
2023-12-11T01:24:37.094Z,99832.28
2023-12-11T01:25:39.898Z,99830.57
2023-12-11T01:26:43.353Z,99828.90
2023-12-11T01:27:46.113Z,99829.73
2023-12-11T01:28:48.433Z,99824.63
2023-12-11T01:29:50.812Z,99824.63
2023-12-11T01:30:55.461Z,99822.08
2023-12-11T01:31:58.217Z,99818.66
2023-12-11T01:33:01.727Z,99824.63
2023-12-11T01:34:04.637Z,99830.58
2023-12-11T01:35:08.802Z,99837.41
2023-12-11T01:36:13.496Z,99842.53
2023-12-11T01:37:17.130Z,99840.81
2023-12-11T01:38:19.620Z,99837.41
2023-12-11T01:39:22.399Z,99832.30
2023-12-11T01:40:26.297Z,99833.98
2023-12-11T01:41:28.794Z,99833.97
2023-12-11T01:42:33.332Z,99833.97
2023-12-11T01:43:35.763Z,99833.08
2023-12-11T01:44:39.303Z,99826.27
2023-12-11T01:45:42.307Z,99828.83
2023-12-11T01:46:45.514Z,99823.73
2023-12-11T01:47:48.639Z,99824.61
2023-12-11T01:48:53.693Z,99832.28
2023-12-11T01:49:56.596Z,99831.41
2023-12-11T01:50:59.407Z,99835.69
2023-12-11T01:52:01.713Z,99834.02
2023-12-11T01:53:04.115Z,99829.73
2023-12-11T01:54:06.782Z,99832.31
2023-12-11T01:55:11.101Z,99830.59
2023-12-11T01:56:17.939Z,99826.31
2023-12-11T01:57:20.700Z,99823.77
2023-12-11T01:58:26.118Z,99829.73
2023-12-11T01:59:28.525Z,99828.86
2023-12-11T02:00:31.972Z,99821.14
2023-12-11T02:01:36.899Z,99821.14
2023-12-11T02:02:41.461Z,99820.28
2023-12-11T02:03:43.990Z,99820.27
2023-12-11T02:04:47.880Z,99821.11
2023-12-11T02:05:50.424Z,99823.69
2023-12-11T02:06:53.904Z,99817.73
2023-12-11T02:07:56.524Z,99827.14
2023-12-11T02:09:00.020Z,99816.91
2023-12-11T02:10:02.555Z,99821.20
2023-12-11T02:11:05.435Z,99818.59
2023-12-11T02:12:08.549Z,99822.02
2023-12-11T02:13:11.378Z,99815.15
2023-12-11T02:14:14.368Z,99821.09
2023-12-11T02:15:37.005Z,99808.28
2023-12-11T02:16:39.586Z,99817.69
2023-12-11T02:17:43.526Z,99807.52
2023-12-11T02:18:46.784Z,99811.80
2023-12-11T02:19:49.375Z,99818.59
2023-12-11T02:20:52.511Z,99816.06
2023-12-11T02:21:55.236Z,99811.80
2023-12-11T02:23:00.429Z,99804.08
2023-12-11T02:25:18.107Z,99804.09
2023-12-11T02:26:21.281Z,99810.09
2023-12-11T02:27:24.661Z,99814.38
2023-12-11T02:28:27.644Z,99808.40
2023-12-11T02:29:30.535Z,99806.69
2023-12-11T02:30:38.074Z,99805.83
2023-12-11T02:31:41.112Z,99808.39
2023-12-11T02:32:43.519Z,99808.40
2023-12-11T02:33:45.864Z,99802.42
2023-12-11T02:34:49.019Z,99808.41
2023-12-11T02:35:51.718Z,99800.72
2023-12-11T02:36:55.314Z,99793.06
2023-12-11T02:37:57.916Z,99789.64
2023-12-11T02:39:00.290Z,99798.16
2023-12-11T02:40:03.642Z,99792.20
2023-12-11T02:41:06.280Z,99784.52
2023-12-11T02:42:09.028Z,99788.81
2023-12-11T02:43:12.864Z,99799.03
2023-12-11T02:44:15.366Z,99793.94
2023-12-11T02:45:17.751Z,99790.51
2023-12-11T02:46:20.966Z,99789.64
2023-12-11T02:47:23.811Z,99793.91
2023-12-11T02:48:28.352Z,99792.20
2023-12-11T02:49:31.040Z,99787.11
2023-12-11T02:50:35.008Z,99787.98
2023-12-11T02:51:37.438Z,99793.05
2023-12-11T02:52:39.811Z,99781.95
2023-12-11T02:53:42.227Z,99790.50
2023-12-11T02:54:44.675Z,99787.92
2023-12-11T02:55:47.100Z,99793.91
2023-12-11T02:56:49.768Z,99799.88
2023-12-11T02:58:00.988Z,99799.88
2023-12-11T02:59:04.450Z,99794.78
2023-12-11T03:00:10.735Z,99791.36
2023-12-11T03:01:13.952Z,99796.46
2023-12-11T03:02:16.716Z,99797.32
2023-12-11T03:03:19.205Z,99802.44
2023-12-11T03:04:22.117Z,99789.62
2023-12-11T03:05:24.869Z,99788.78
2023-12-11T03:06:28.427Z,99781.11
2023-12-11T03:07:31.327Z,99778.55
2023-12-11T03:08:34.041Z,99774.28
2023-12-11T03:09:36.515Z,99775.11
2023-12-11T03:10:39.151Z,99772.53
2023-12-11T03:11:41.567Z,99772.53
2023-12-11T03:12:44.233Z,99777.63
2023-12-11T03:13:46.697Z,99773.32
2023-12-11T03:14:49.133Z,99770.76
2023-12-11T03:15:51.861Z,99769.08
2023-12-11T03:16:55.052Z,99769.12
2023-12-11T03:17:57.567Z,99763.14
2023-12-11T03:19:00.198Z,99771.70
2023-12-11T03:20:03.571Z,99779.36
2023-12-11T03:21:07.157Z,99777.63
2023-12-11T03:22:10.140Z,99776.78
2023-12-11T03:23:12.606Z,99779.38
2023-12-11T03:24:15.146Z,99775.97
2023-12-11T03:25:17.640Z,99781.09
2023-12-11T03:26:20.810Z,99777.66
2023-12-11T03:27:23.133Z,99785.34
2023-12-11T03:28:27.417Z,99780.23
2023-12-11T03:29:30.775Z,99784.47
2023-12-11T03:30:33.645Z,99796.42
2023-12-11T03:31:35.990Z,99794.72
2023-12-11T03:32:38.757Z,99788.72
2023-12-11T03:33:41.192Z,99792.94
2023-12-11T03:34:44.086Z,99792.92
2023-12-11T03:35:46.713Z,99795.50
2023-12-11T03:36:49.729Z,99787.83
2023-12-11T03:37:52.310Z,99783.58
2023-12-11T03:38:56.097Z,99795.52
2023-12-11T03:39:58.885Z,99793.78
2023-12-11T03:41:01.532Z,99797.16
2023-12-11T03:42:03.983Z,99792.05
2023-12-11T03:43:06.417Z,99802.32
2023-12-11T03:44:09.983Z,99796.36
2023-12-11T03:45:15.101Z,99786.98
2023-12-11T03:46:18.971Z,99789.55
2023-12-11T03:47:22.216Z,99794.66
2023-12-11T03:48:24.852Z,99793.80
2023-12-11T03:49:29.088Z,99792.92
2023-12-11T03:50:32.716Z,99796.30
2023-12-11T03:51:35.685Z,99786.94
2023-12-11T03:52:40.509Z,99787.74
2023-12-11T03:53:42.961Z,99787.80
2023-12-11T03:54:45.338Z,99785.24
2023-12-11T03:55:47.775Z,99785.27
2023-12-11T03:56:50.243Z,99783.55
2023-12-11T03:57:52.668Z,99794.59
2023-12-11T03:58:55.043Z,99792.95
2023-12-11T03:59:57.662Z,99791.23
2023-12-11T04:01:01.261Z,99792.06
2023-12-11T04:02:04.652Z,99786.12
2023-12-11T04:03:07.970Z,99792.97
2023-12-11T04:04:10.540Z,99792.92
2023-12-11T04:05:14.252Z,99781.86
2023-12-11T04:06:17.234Z,99781.86
2023-12-11T04:07:19.619Z,99786.13
2023-12-11T04:08:21.922Z,99779.31
2023-12-11T04:09:24.328Z,99790.41
2023-12-11T04:10:27.804Z,99791.23
2023-12-11T04:11:30.147Z,99789.52
2023-12-11T04:12:32.531Z,99792.09
2023-12-11T04:13:34.856Z,99781.83
2023-12-11T04:14:38.268Z,99786.98
2023-12-11T04:15:40.713Z,99780.13
2023-12-11T04:16:43.738Z,99782.68
2023-12-11T04:17:46.121Z,99772.41
2023-12-11T04:18:48.811Z,99774.14
2023-12-11T04:19:51.813Z,99781.81
2023-12-11T04:20:54.397Z,99775.83
2023-12-11T04:21:57.844Z,99777.50
2023-12-11T04:23:00.252Z,99780.91
2023-12-11T04:24:02.642Z,99771.55
2023-12-11T04:25:06.819Z,99773.25
2023-12-11T04:26:11.574Z,99773.19
2023-12-11T04:27:13.921Z,99775.77
2023-12-11T04:28:18.575Z,99761.21
2023-12-11T04:29:21.745Z,99768.02
2023-12-11T04:30:26.042Z,99763.77
2023-12-11T04:31:31.299Z,99765.48
2023-12-11T04:32:33.738Z,99760.36
2023-12-11T04:33:38.220Z,99763.70
2023-12-11T04:34:41.057Z,99767.92
2023-12-11T04:35:45.218Z,99769.59
2023-12-11T04:36:48.311Z,99763.56
2023-12-11T04:37:51.621Z,99770.44
2023-12-11T04:38:55.344Z,99767.01
2023-12-11T04:39:59.656Z,99766.15
2023-12-11T04:41:03.327Z,99768.69
2023-12-11T04:42:06.793Z,99765.23
2023-12-11T04:43:09.904Z,99763.52
2023-12-11T04:44:12.568Z,99760.14
2023-12-11T04:45:16.138Z,99762.70
2023-12-11T04:46:19.188Z,99761.86
2023-12-11T04:47:21.900Z,99760.14
2023-12-11T04:48:24.444Z,99758.48
2023-12-11T04:49:27.136Z,99761.81
2023-12-11T04:50:29.808Z,99766.22
2023-12-11T04:51:32.371Z,99766.22
2023-12-11T04:52:35.185Z,99768.73
2023-12-11T04:53:41.840Z,99772.11
2023-12-11T04:54:44.356Z,99765.27
2023-12-11T04:55:47.113Z,99765.26
2023-12-11T04:56:50.033Z,99766.11
2023-12-11T04:57:53.475Z,99764.44
2023-12-11T04:58:55.955Z,99766.13
2023-12-11T04:59:58.358Z,99767.80
2023-12-11T05:01:01.190Z,99755.88
2023-12-11T05:02:04.790Z,99755.88
2023-12-11T05:03:07.272Z,99763.56
2023-12-11T05:04:10.206Z,99755.00
2023-12-11T05:05:14.978Z,99771.18
2023-12-11T05:06:18.751Z,99765.20
2023-12-11T05:07:21.702Z,99758.36
2023-12-11T05:08:26.597Z,99761.77
2023-12-11T05:09:28.342Z,99762.66
2023-12-11T05:10:30.978Z,99761.77
2023-12-11T05:11:33.370Z,99751.45
2023-12-11T05:12:36.017Z,99758.30
2023-12-11T05:13:38.798Z,99745.48
2023-12-11T05:14:41.382Z,99748.89
2023-12-11T05:15:44.128Z,99751.52
2023-12-11T05:16:46.797Z,99745.52
2023-12-11T05:17:49.615Z,99742.03
2023-12-11T05:18:52.050Z,99749.67
2023-12-11T05:19:55.768Z,99746.36
2023-12-11T05:20:59.625Z,99747.21
2023-12-11T05:22:03.014Z,99748.09
2023-12-11T05:23:05.382Z,99743.81
2023-12-11T05:24:07.823Z,99740.47
2023-12-11T05:25:10.646Z,99747.19
2023-12-11T05:26:21.655Z,99741.30
2023-12-11T05:27:24.111Z,99737.84
2023-12-11T05:28:27.574Z,99733.69
2023-12-11T05:29:30.813Z,99737.94
2023-12-11T05:30:34.285Z,99737.94
2023-12-11T05:31:36.901Z,99731.05
2023-12-11T05:32:40.083Z,99722.45
2023-12-11T05:33:42.784Z,99725.02
2023-12-11T05:34:46.325Z,99722.39
2023-12-11T05:35:48.744Z,99727.47
2023-12-11T05:36:53.314Z,99730.08
2023-12-11T05:37:59.810Z,99730.08
2023-12-11T05:39:02.816Z,99735.11
2023-12-11T05:40:21.689Z,99732.56
2023-12-11T05:41:11.815Z,99732.67
2023-12-11T05:42:14.238Z,99736.94
2023-12-11T05:43:18.399Z,99725.81
2023-12-11T05:44:21.436Z,99730.08
2023-12-11T05:45:24.227Z,99717.22
2023-12-11T05:46:26.879Z,99717.16
2023-12-11T05:47:30.818Z,99712.88
2023-12-11T05:48:33.526Z,99718.98
2023-12-11T05:49:36.605Z,99723.23
2023-12-11T05:50:41.361Z,99711.25
2023-12-11T05:51:43.685Z,99714.59
2023-12-11T05:52:46.168Z,99706.95
2023-12-11T05:53:48.615Z,99698.50
2023-12-11T05:54:52.199Z,99697.72
2023-12-11T05:55:57.102Z,99695.93
2023-12-11T05:56:59.668Z,99693.30
2023-12-11T05:58:02.042Z,99700.19
2023-12-11T05:59:04.247Z,99703.66
2023-12-11T06:00:08.482Z,99706.35
2023-12-11T06:01:11.005Z,99697.80
2023-12-11T06:02:13.331Z,99702.86
2023-12-11T06:03:15.725Z,99703.66
2023-12-11T06:04:18.488Z,99705.34
2023-12-11T06:05:21.428Z,99711.27
2023-12-11T06:06:24.302Z,99711.31
2023-12-11T06:07:26.626Z,99719.19
2023-12-11T06:08:28.941Z,99716.64
2023-12-11T06:09:32.036Z,99710.61
2023-12-11T06:10:35.410Z,99712.36
2023-12-11T06:11:38.556Z,99709.82
2023-12-11T06:12:43.548Z,99718.45
2023-12-11T06:13:45.876Z,99712.42
2023-12-11T06:14:49.626Z,99705.53
2023-12-11T06:15:53.044Z,99704.75
2023-12-11T06:16:55.461Z,99708.17
2023-12-11T06:17:57.958Z,99703.10
2023-12-11T06:19:00.892Z,99710.74
2023-12-11T06:20:08.657Z,99708.99
2023-12-11T06:21:21.504Z,99710.70
2023-12-11T06:22:24.392Z,99716.65
2023-12-11T06:23:29.442Z,99714.84
2023-12-11T06:24:32.022Z,99709.66
2023-12-11T06:25:34.594Z,99710.50
2023-12-11T06:26:37.384Z,99708.81
2023-12-11T06:27:39.762Z,99705.48
2023-12-11T06:28:43.142Z,99708.02
2023-12-11T06:29:45.618Z,99709.73
2023-12-11T06:30:48.445Z,99716.53
2023-12-11T06:31:51.513Z,99719.91
2023-12-11T06:32:54.021Z,99711.29
2023-12-11T06:33:57.255Z,99714.77
2023-12-11T06:34:59.859Z,99711.43
2023-12-11T06:36:02.667Z,99708.95
2023-12-11T06:37:05.508Z,99709.88
2023-12-11T06:38:08.907Z,99717.55
2023-12-11T06:39:11.504Z,99720.95
2023-12-11T06:40:14.599Z,99720.03
2023-12-11T06:41:18.004Z,99716.64
2023-12-11T06:42:20.577Z,99714.99
2023-12-11T06:43:23.482Z,99709.83
2023-12-11T06:44:27.144Z,99716.70
2023-12-11T06:45:33.052Z,99715.91
2023-12-11T06:46:34.918Z,99724.39
2023-12-11T06:47:37.501Z,99727.00
2023-12-11T06:48:40.168Z,99727.04
2023-12-11T06:49:45.044Z,99721.94
2023-12-11T06:50:47.837Z,99734.70
2023-12-11T06:51:51.655Z,99730.44
2023-12-11T06:52:54.739Z,99727.88
2023-12-11T06:54:00.411Z,99731.29
2023-12-11T06:55:03.994Z,99735.59
2023-12-11T06:56:07.843Z,99735.58
2023-12-11T06:57:10.621Z,99728.80
2023-12-11T06:58:13.130Z,99726.23
2023-12-11T06:59:15.456Z,99718.54
2023-12-11T07:00:19.600Z,99722.79
2023-12-11T07:01:23.943Z,99727.87
2023-12-11T07:02:28.638Z,99721.05
2023-12-11T07:03:33.160Z,99726.16
2023-12-11T07:04:35.940Z,99721.88
2023-12-11T07:05:43.512Z,99719.31
2023-12-11T07:06:46.683Z,99721.88
2023-12-11T07:07:49.760Z,99722.70
2023-12-11T07:08:53.143Z,99721.83
2023-12-11T07:09:55.565Z,99709.91
2023-12-11T07:10:58.317Z,99707.38
2023-12-11T07:12:00.803Z,99707.38
2023-12-11T07:13:05.482Z,99718.48
2023-12-11T07:14:09.400Z,99715.06
2023-12-11T07:15:13.447Z,99722.75
2023-12-11T07:16:17.994Z,99719.29
2023-12-11T07:17:20.586Z,99727.78
2023-12-11T07:18:22.940Z,99727.78
2023-12-11T07:19:25.759Z,99731.22
2023-12-11T07:20:28.914Z,99722.66
2023-12-11T07:21:31.440Z,99730.36
2023-12-11T07:22:35.172Z,99724.38
2023-12-11T07:23:38.639Z,99731.23
2023-12-11T07:24:41.137Z,99727.78
2023-12-11T07:25:45.276Z,99733.80
2023-12-11T07:26:48.053Z,99727.81
2023-12-11T07:27:50.563Z,99736.37
2023-12-11T07:28:56.131Z,99733.79
2023-12-11T07:29:58.685Z,99733.81
2023-12-11T07:31:03.620Z,99732.95
2023-12-11T07:32:07.276Z,99738.91
2023-12-11T07:33:10.002Z,99737.20
2023-12-11T07:34:12.905Z,99734.62
2023-12-11T07:35:15.430Z,99732.91
2023-12-11T07:36:20.361Z,99742.33
2023-12-11T07:37:22.816Z,99743.16
2023-12-11T07:38:28.845Z,99739.74
2023-12-11T07:39:31.350Z,99735.45
2023-12-11T07:40:34.917Z,99732.88
2023-12-11T07:41:37.909Z,99732.03
2023-12-11T07:42:40.569Z,99728.61
2023-12-11T07:43:43.498Z,99727.73
2023-12-11T07:44:45.959Z,99722.61
2023-12-11T07:45:48.495Z,99726.03
2023-12-11T07:46:51.719Z,99727.73
2023-12-11T07:47:54.653Z,99719.20
2023-12-11T07:48:57.553Z,99727.73
2023-12-11T07:50:01.809Z,99728.64
2023-12-11T07:51:04.643Z,99719.25
2023-12-11T07:52:07.109Z,99726.12
2023-12-11T07:53:10.037Z,99722.70
2023-12-11T07:54:13.379Z,99727.83
2023-12-11T07:55:17.040Z,99715.00
2023-12-11T07:56:21.714Z,99723.53
2023-12-11T07:57:29.308Z,99722.66
2023-12-11T07:58:32.847Z,99720.99
2023-12-11T07:59:35.162Z,99727.78
2023-12-11T08:00:38.134Z,99724.37
2023-12-11T08:01:41.348Z,99717.53
2023-12-11T08:02:44.031Z,99720.07
2023-12-11T08:03:47.769Z,99720.91
2023-12-11T08:04:50.490Z,99712.36
2023-12-11T08:05:52.930Z,99717.48
2023-12-11T08:06:56.797Z,99715.77
2023-12-11T08:07:59.982Z,99710.69
2023-12-11T08:09:04.783Z,99710.69
2023-12-11T08:10:09.087Z,99704.72
2023-12-11T08:11:22.814Z,99698.71
2023-12-11T08:12:26.882Z,99702.11
2023-12-11T08:13:30.187Z,99704.65
2023-12-11T08:14:37.200Z,99694.42
2023-12-11T08:15:39.417Z,99709.80
2023-12-11T08:16:42.129Z,99697.80
2023-12-11T08:17:44.697Z,99695.18
2023-12-11T08:18:48.861Z,99687.53
2023-12-11T08:19:52.325Z,99690.05
2023-12-11T08:20:56.366Z,99685.78
2023-12-11T08:21:59.032Z,99688.36
2023-12-11T08:23:01.600Z,99690.05
2023-12-11T08:24:04.324Z,99681.45
2023-12-11T08:25:07.427Z,99679.72
2023-12-11T08:26:12.212Z,99679.72
2023-12-11T08:27:14.917Z,99678.03
2023-12-11T08:28:18.692Z,99680.58
2023-12-11T08:29:25.327Z,99682.27
2023-12-11T08:30:28.793Z,99681.40
2023-12-11T08:31:31.559Z,99683.15
2023-12-11T08:32:38.191Z,99679.68
2023-12-11T08:33:40.798Z,99676.33
2023-12-11T08:34:43.729Z,99674.59
2023-12-11T08:35:46.572Z,99674.66
2023-12-11T08:36:49.787Z,99672.89
2023-12-11T08:37:52.460Z,99672.91
2023-12-11T08:38:55.467Z,99671.14
2023-12-11T08:39:58.449Z,99660.89
2023-12-11T08:41:01.390Z,99676.27
2023-12-11T08:42:04.207Z,99661.76
2023-12-11T08:43:08.643Z,99661.73
2023-12-11T08:44:11.592Z,99662.64
2023-12-11T08:45:14.522Z,99655.78
2023-12-11T08:46:18.286Z,99664.36
2023-12-11T08:47:20.878Z,99666.12
2023-12-11T08:48:25.587Z,99659.28
2023-12-11T08:49:27.791Z,99656.64
2023-12-11T08:50:30.453Z,99655.75
2023-12-11T08:51:34.043Z,99656.61
2023-12-11T08:52:38.763Z,99654.09
2023-12-11T08:53:41.034Z,99657.52
2023-12-11T08:54:44.017Z,99658.33
2023-12-11T08:55:48.790Z,99665.08
2023-12-11T08:56:52.749Z,99650.64
2023-12-11T08:57:55.855Z,99665.20
2023-12-11T08:58:58.513Z,99650.64
2023-12-11T09:00:01.269Z,99659.28
2023-12-11T09:01:05.364Z,99653.27
2023-12-11T09:02:07.967Z,99664.36
2023-12-11T09:03:11.915Z,99655.75
2023-12-11T09:04:14.452Z,99646.30
2023-12-11T09:05:16.921Z,99652.17
2023-12-11T09:06:20.833Z,99652.28
2023-12-11T09:07:23.520Z,99645.50
2023-12-11T09:08:27.094Z,99638.71
2023-12-11T09:09:29.626Z,99635.30
2023-12-11T09:10:34.783Z,99634.50
2023-12-11T09:11:37.295Z,99636.16
2023-12-11T09:12:39.961Z,99636.08
2023-12-11T09:13:42.458Z,99630.13
2023-12-11T09:14:45.259Z,99632.72
2023-12-11T09:15:47.958Z,99643.73
2023-12-11T09:16:50.625Z,99631.69
2023-12-11T09:17:53.177Z,99634.25
2023-12-11T09:18:56.775Z,99634.25
2023-12-11T09:19:59.525Z,99637.61
2023-12-11T09:21:02.052Z,99631.62
2023-12-11T09:22:05.215Z,99635.05
2023-12-11T09:23:10.086Z,99636.80
2023-12-11T09:24:13.512Z,99637.59
2023-12-11T09:25:16.090Z,99637.52
2023-12-11T09:26:19.671Z,99632.46
2023-12-11T09:27:22.308Z,99629.02
2023-12-11T09:28:26.396Z,99623.87
2023-12-11T09:29:28.989Z,99628.94
2023-12-11T09:30:31.673Z,99628.13
2023-12-11T09:31:35.163Z,99623.00
2023-12-11T09:32:38.428Z,99630.72
2023-12-11T09:33:42.506Z,99617.77
2023-12-11T09:34:45.855Z,99622.02
2023-12-11T09:35:49.572Z,99621.11
2023-12-11T09:36:52.618Z,99620.19
2023-12-11T09:37:55.647Z,99622.88
2023-12-11T09:38:59.189Z,99621.20
2023-12-11T09:40:01.791Z,99616.96
2023-12-11T09:41:06.572Z,99624.68
2023-12-11T09:42:09.327Z,99620.34
2023-12-11T09:43:12.683Z,99620.39
2023-12-11T09:44:17.343Z,99621.99
2023-12-11T09:45:22.462Z,99617.70
2023-12-11T09:46:26.187Z,99620.41
2023-12-11T09:47:32.539Z,99617.84
2023-12-11T09:48:35.564Z,99617.77
2023-12-11T09:49:39.234Z,99607.52
2023-12-11T09:50:42.897Z,99607.52
2023-12-11T09:51:45.543Z,99608.17
2023-12-11T09:52:48.488Z,99613.26
2023-12-11T09:53:53.010Z,99618.28
2023-12-11T09:54:55.802Z,99610.84
2023-12-11T09:55:59.510Z,99610.84
2023-12-11T09:57:02.985Z,99610.08
2023-12-11T09:58:06.839Z,99605.02
2023-12-11T09:59:11.129Z,99606.80
2023-12-11T10:00:17.559Z,99605.05
2023-12-11T10:01:20.842Z,99605.09
2023-12-11T10:02:25.621Z,99602.46
2023-12-11T10:03:29.095Z,99607.61
2023-12-11T10:04:32.136Z,99599.87
2023-12-11T10:05:36.612Z,99597.42
2023-12-11T10:06:40.274Z,99594.93
2023-12-11T10:07:43.415Z,99595.70
2023-12-11T10:08:48.499Z,99595.72
2023-12-11T10:09:51.498Z,99591.55
2023-12-11T10:11:10.704Z,99595.79
2023-12-11T10:12:13.345Z,99591.62
2023-12-11T10:13:25.675Z,99595.93
2023-12-11T10:14:31.304Z,99589.95
2023-12-11T10:15:36.148Z,99592.50
2023-12-11T10:16:38.683Z,99594.20
2023-12-11T10:17:41.697Z,99595.95
2023-12-11T10:18:50.791Z,99599.37
2023-12-11T10:19:53.748Z,99592.57
2023-12-11T10:20:58.054Z,99595.15
2023-12-11T10:22:04.465Z,99590.80
2023-12-11T10:23:15.841Z,99592.52
2023-12-11T10:24:19.207Z,99587.38
2023-12-11T10:25:29.500Z,99590.73
2023-12-11T10:26:38.335Z,99601.88
2023-12-11T10:27:42.784Z,99590.73
2023-12-11T10:28:46.349Z,99588.07
2023-12-11T10:29:49.744Z,99588.89
2023-12-11T10:30:55.905Z,99585.46
2023-12-11T10:32:04.842Z,99586.30
2023-12-11T10:33:09.410Z,99592.22
2023-12-11T10:34:11.997Z,99594.84
2023-12-11T10:35:24.485Z,99594.86
2023-12-11T10:36:27.816Z,99587.14
2023-12-11T10:37:31.097Z,99588.87
2023-12-11T10:38:34.870Z,99587.16
2023-12-11T10:39:38.292Z,99587.09
2023-12-11T10:40:42.417Z,99587.09
2023-12-11T10:41:46.581Z,99582.02
2023-12-11T10:42:59.212Z,99583.02
2023-12-11T10:44:12.755Z,99580.48
2023-12-11T10:45:08.351Z,99582.18
2023-12-11T10:46:12.591Z,99579.49
2023-12-11T10:47:16.244Z,99581.15
2023-12-11T10:48:20.065Z,99581.15
2023-12-11T10:49:24.343Z,99580.36
2023-12-11T10:50:27.957Z,99577.74
2023-12-11T10:51:33.170Z,99586.30
2023-12-11T10:52:40.318Z,99579.50
2023-12-11T10:53:47.291Z,99582.95
2023-12-11T10:54:50.781Z,99583.83
2023-12-11T10:55:55.969Z,99580.50
2023-12-11T10:57:01.965Z,99581.41
2023-12-11T10:58:09.592Z,99585.60
2023-12-11T10:59:12.311Z,99581.56
2023-12-11T11:00:15.897Z,99587.65
2023-12-11T11:01:19.014Z,99593.78
2023-12-11T11:02:24.841Z,99586.13
2023-12-11T11:03:28.206Z,99584.47
2023-12-11T11:04:37.536Z,99593.02
2023-12-11T11:05:42.517Z,99579.35
2023-12-11T11:06:48.840Z,99576.86
2023-12-11T11:08:04.873Z,99574.23
2023-12-11T11:09:10.922Z,99572.47
2023-12-11T11:10:23.503Z,99574.19
2023-12-11T11:11:33.324Z,99570.94
2023-12-11T11:13:05.873Z,99567.63
2023-12-11T11:14:44.678Z,99562.58
2023-12-11T11:15:57.188Z,99568.50
2023-12-11T11:17:00.513Z,99565.97
2023-12-11T11:18:11.206Z,99556.58
2023-12-11T11:19:14.744Z,99568.50
2023-12-11T11:20:21.464Z,99564.19
2023-12-11T11:21:23.159Z,99559.02
2023-12-11T11:22:32.503Z,99556.44
2023-12-11T11:23:32.538Z,99564.17
2023-12-11T11:24:35.787Z,99565.87
2023-12-11T11:25:39.681Z,99566.73
2023-12-11T11:26:43.659Z,99563.38
2023-12-11T11:27:46.075Z,99567.63
2023-12-11T11:28:50.699Z,99555.66
2023-12-11T11:29:53.969Z,99562.50
2023-12-11T11:30:56.467Z,99572.75
2023-12-11T11:32:01.725Z,99568.53
2023-12-11T11:33:07.577Z,99565.06
2023-12-11T11:34:10.922Z,99565.02
2023-12-11T11:35:16.760Z,99569.19
2023-12-11T11:36:22.230Z,99557.17
2023-12-11T11:37:50.753Z,99560.64
2023-12-11T11:38:58.361Z,99555.48
2023-12-11T11:40:05.427Z,99563.19
2023-12-11T11:41:29.127Z,99567.36
2023-12-11T11:42:33.504Z,99565.70
2023-12-11T11:43:36.362Z,99563.16
2023-12-11T11:44:38.506Z,99558.97
2023-12-11T11:45:41.029Z,99561.63
2023-12-11T11:46:57.711Z,99563.34
2023-12-11T11:48:00.151Z,99564.11
2023-12-11T11:49:02.956Z,99561.52
2023-12-11T11:50:08.997Z,99570.05
2023-12-11T11:51:14.771Z,99556.33
2023-12-11T11:52:21.283Z,99547.83
2023-12-11T11:53:23.996Z,99552.03
2023-12-11T11:54:28.807Z,99546.72
2023-12-11T11:55:31.552Z,99546.72
2023-12-11T11:56:37.813Z,99548.44
2023-12-11T11:57:44.411Z,99550.15
2023-12-11T11:58:46.617Z,99550.97
2023-12-11T11:59:49.016Z,99544.09
2023-12-11T12:00:53.367Z,99550.03
2023-12-11T12:01:58.808Z,99550.03
2023-12-11T12:03:05.814Z,99554.29
2023-12-11T12:04:08.565Z,99550.09
2023-12-11T12:05:12.807Z,99550.05
2023-12-11T12:06:18.135Z,99554.25
2023-12-11T12:07:20.949Z,99546.52
2023-12-11T12:08:24.080Z,99544.00
2023-12-11T12:09:26.522Z,99550.01
2023-12-11T12:10:31.338Z,99546.65
2023-12-11T12:11:34.930Z,99544.16
2023-12-11T12:12:37.746Z,99539.84
2023-12-11T12:13:41.479Z,99539.84
2023-12-11T12:14:46.206Z,99541.59
2023-12-11T12:15:50.573Z,99544.95
2023-12-11T12:16:53.466Z,99544.06
2023-12-11T12:18:09.048Z,99544.09
2023-12-11T12:19:12.673Z,99539.00
2023-12-11T12:20:18.028Z,99545.70
2023-12-11T12:21:21.556Z,99547.45
2023-12-11T12:22:24.280Z,99549.98
2023-12-11T12:23:26.713Z,99546.77
2023-12-11T12:24:29.964Z,99546.77
2023-12-11T12:25:34.345Z,99547.59
2023-12-11T12:26:43.414Z,99549.25
2023-12-11T12:27:46.341Z,99551.77
2023-12-11T12:28:49.123Z,99552.59
2023-12-11T12:29:52.579Z,99549.98
2023-12-11T12:30:55.799Z,99554.25